Time;durP1;ratioP1;P1;durP2;ratioP2;P2;SDS_P1;SDS_P2;PMS_P1;PMS_P2;Temp;Humidity;BMP_temperature;BMP_pressure;BME280_temperature;BME280_humidity;BME280_pressure;Samples;Min_cycle;Max_cycle;Signal;HPM_P1;HPM_P2
2021/10/10 00:02:05;;;;;;;13.75;7.65;;;13.40;72.20;;;;;;5085796;28;20063;-68
2021/10/10 00:04:31;;;;;;;26.98;8.70;;;13.40;72.30;;;;;;5086875;28;20082;-69
2021/10/10 00:06:57;;;;;;;14.45;7.70;;;13.40;72.40;;;;;;5085279;28;20043;-69
2021/10/10 00:09:25;;;;;;;18.42;8.57;;;13.40;72.40;;;;;;5087733;28;20035;-69
2021/10/10 00:11:52;;;;;;;15.27;7.50;;;13.40;72.60;;;;;;5083245;28;20032;-69
2021/10/10 00:14:18;;;;;;;19.40;9.30;;;13.30;72.50;;;;;;5078988;28;20028;-69
2021/10/10 00:16:45;;;;;;;19.58;9.38;;;13.30;72.60;;;;;;5085099;28;20016;-69
2021/10/10 00:19:11;;;;;;;16.67;8.45;;;13.30;72.60;;;;;;5086390;28;20036;-69
2021/10/10 00:21:39;;;;;;;18.85;7.97;;;13.30;72.60;;;;;;5085272;28;20036;-69
2021/10/10 00:24:05;;;;;;;18.08;8.60;;;13.30;72.60;;;;;;5074267;28;20112;-68
2021/10/10 00:26:31;;;;;;;15.50;8.23;;;13.20;72.70;;;;;;5077659;28;20024;-69
2021/10/10 00:28:56;;;;;;;19.00;8.38;;;13.20;72.70;;;;;;5091929;28;20036;-68
2021/10/10 00:31:22;;;;;;;21.88;9.13;;;13.20;72.80;;;;;;5088019;28;20378;-69
2021/10/10 00:33:48;;;;;;;16.80;8.65;;;13.20;72.80;;;;;;5083932;28;20021;-68
2021/10/10 00:36:13;;;;;;;17.38;8.50;;;13.10;72.90;;;;;;5074873;28;20506;-68
2021/10/10 00:38:39;;;;;;;22.58;8.38;;;13.10;73.00;;;;;;5084737;28;20036;-69
2021/10/10 00:41:06;;;;;;;12.27;7.68;;;13.10;73.00;;;;;;5080614;28;20056;-69
2021/10/10 00:43:31;;;;;;;16.48;8.35;;;13.00;73.00;;;;;;5088454;28;20032;-68
2021/10/10 00:45:57;;;;;;;19.00;9.05;;;13.00;73.00;;;;;;5086310;28;20028;-68
2021/10/10 00:48:23;;;;;;;15.13;7.78;;;13.00;73.10;;;;;;5090395;28;20032;-68
2021/10/10 00:50:48;;;;;;;16.08;8.88;;;13.00;73.10;;;;;;5076985;28;20505;-68
2021/10/10 00:53:18;;;;;;;18.55;8.93;;;12.90;73.10;;;;;;5082560;28;20040;-68
2021/10/10 00:55:48;;;;;;;21.08;8.90;;;12.90;73.10;;;;;;5087840;28;20044;-68
2021/10/10 00:58:16;;;;;;;20.38;8.68;;;12.90;73.10;;;;;;5077813;28;20024;-68
2021/10/10 01:00:41;;;;;;;15.05;8.63;;;12.80;73.00;;;;;;5110776;28;20032;-68
2021/10/10 01:03:07;;;;;;;13.52;8.77;;;12.90;73.10;;;;;;5087044;28;20093;-68
2021/10/10 01:05:33;;;;;;;20.50;8.73;;;12.90;73.10;;;;;;5072591;28;20021;-69
2021/10/10 01:07:58;;;;;;;29.77;8.13;;;12.80;73.10;;;;;;5089073;28;20056;-68
2021/10/10 01:10:24;;;;;;;17.77;8.63;;;12.80;73.10;;;;;;5090417;28;20364;-68
2021/10/10 01:12:51;;;;;;;14.68;8.30;;;12.70;73.20;;;;;;5087749;28;20081;-68
2021/10/10 01:15:16;;;;;;;20.48;8.93;;;12.80;73.20;;;;;;5090842;28;20036;-68
2021/10/10 01:17:42;;;;;;;20.63;8.38;;;12.70;73.30;;;;;;5076421;28;20028;-69
2021/10/10 01:20:10;;;;;;;20.15;8.48;;;12.70;73.40;;;;;;5078547;28;20028;-68
2021/10/10 01:22:36;;;;;;;18.90;8.52;;;12.70;73.50;;;;;;5082730;28;20040;-69
2021/10/10 01:25:03;;;;;;;13.52;7.78;;;12.70;73.60;;;;;;5072212;28;20041;-68
2021/10/10 01:27:29;;;;;;;14.95;8.45;;;12.70;73.70;;;;;;5079598;28;20039;-68
2021/10/10 01:29:55;;;;;;;14.50;8.05;;;12.60;73.70;;;;;;5083754;28;20025;-68
2021/10/10 01:32:20;;;;;;;18.38;8.23;;;12.60;73.80;;;;;;5074386;28;20406;-68
2021/10/10 01:34:47;;;;;;;14.48;8.10;;;12.60;73.70;;;;;;5084368;28;20035;-69
2021/10/10 01:37:14;;;;;;;15.65;7.97;;;12.50;73.80;;;;;;5073209;28;20090;-68
2021/10/10 01:39:40;;;;;;;26.70;10.48;;;12.50;73.70;;;;;;5074836;28;20472;-67
2021/10/10 01:42:06;;;;;;;17.33;8.10;;;12.60;73.70;;;;;;5074381;28;20044;-68
2021/10/10 01:44:32;;;;;;;19.50;8.55;;;12.50;73.80;;;;;;5074931;28;20082;-68
2021/10/10 01:46:58;;;;;;;13.13;7.72;;;12.50;73.90;;;;;;5075995;28;20032;-69
2021/10/10 01:49:23;;;;;;;14.38;8.63;;;12.40;73.90;;;;;;5085883;28;20035;-69
2021/10/10 01:51:49;;;;;;;17.90;8.82;;;12.50;74.00;;;;;;5072099;28;20033;-69
2021/10/10 01:54:15;;;;;;;14.27;8.18;;;12.40;73.90;;;;;;5084668;28;21068;-68
2021/10/10 01:56:50;;;;;;;13.80;9.05;;;12.40;73.90;;;;;;5075745;28;20449;-68
2021/10/10 01:59:15;;;;;;;18.38;8.63;;;12.40;74.00;;;;;;5077173;28;20039;-68
2021/10/10 02:01:41;;;;;;;17.30;9.00;;;12.30;73.90;;;;;;5079080;28;20028;-68
2021/10/10 02:04:07;;;;;;;15.00;8.02;;;12.30;73.90;;;;;;5074751;28;20033;-69
2021/10/10 02:06:32;;;;;;;15.88;7.75;;;12.30;74.10;;;;;;5081731;28;20035;-68
2021/10/10 02:08:58;;;;;;;16.95;8.40;;;12.30;74.20;;;;;;5077135;28;20040;-69
2021/10/10 02:11:23;;;;;;;33.67;8.48;;;12.20;74.80;;;;;;5087540;28;20028;-68
2021/10/10 02:13:49;;;;;;;16.15;7.88;;;12.20;74.30;;;;;;5075220;28;20032;-68
2021/10/10 02:16:15;;;;;;;15.52;8.52;;;12.20;74.30;;;;;;5090599;28;20371;-68
2021/10/10 02:18:40;;;;;;;18.45;8.45;;;12.20;74.40;;;;;;5075732;28;20025;-68
2021/10/10 02:21:06;;;;;;;14.90;8.18;;;12.20;74.40;;;;;;5081353;28;20485;-69
2021/10/10 02:23:33;;;;;;;24.48;8.95;;;12.20;74.50;;;;;;5088364;28;20036;-68
2021/10/10 02:25:59;;;;;;;17.85;8.60;;;12.10;74.60;;;;;;5077255;28;20050;-69
2021/10/10 02:28:24;;;;;;;16.60;7.60;;;12.10;74.60;;;;;;5077370;28;20574;-68
2021/10/10 02:30:50;;;;;;;22.00;8.82;;;12.10;74.60;;;;;;5079891;28;20036;-69
2021/10/10 02:33:16;;;;;;;17.20;8.40;;;12.10;74.60;;;;;;5093213;28;20060;-69
2021/10/10 02:35:42;;;;;;;15.82;8.77;;;12.10;74.70;;;;;;5075876;28;20028;-68
2021/10/10 02:38:08;;;;;;;15.43;8.93;;;12.00;74.70;;;;;;5091413;28;20040;-68
2021/10/10 02:40:34;;;;;;;15.95;7.90;;;12.00;74.70;;;;;;5090349;28;20422;-68
2021/10/10 02:43:00;;;;;;;14.35;8.23;;;12.00;74.70;;;;;;5076895;28;20040;-68
2021/10/10 02:45:26;;;;;;;14.27;8.13;;;12.00;74.50;;;;;;5085699;28;20051;-68
2021/10/10 02:47:51;;;;;;;16.85;7.85;;;12.00;74.50;;;;;;5076615;28;20051;-68
2021/10/10 02:50:17;;;;;;;17.13;7.88;;;12.00;74.50;;;;;;5076198;28;20017;-68
2021/10/10 02:52:43;;;;;;;13.85;7.20;;;12.00;74.50;;;;;;5083866;28;20383;-68
2021/10/10 02:55:09;;;;;;;15.35;7.93;;;11.90;74.40;;;;;;5084609;28;20035;-68
2021/10/10 02:57:35;;;;;;;14.43;8.00;;;11.90;74.40;;;;;;5092167;28;20032;-68
2021/10/10 03:00:00;;;;;;;19.23;7.90;;;11.90;74.30;;;;;;5082810;28;20070;-68
2021/10/10 03:02:26;;;;;;;20.50;7.32;;;11.90;74.30;;;;;;5076746;28;20032;-68
2021/10/10 03:04:52;;;;;;;12.35;7.82;;;11.80;74.20;;;;;;5084120;28;20040;-68
2021/10/10 03:07:17;;;;;;;13.32;8.18;;;11.80;74.20;;;;;;5089924;28;20427;-68
2021/10/10 03:09:46;;;;;;;16.35;8.18;;;11.80;74.20;;;;;;5087015;28;20033;-69
2021/10/10 03:12:11;;;;;;;13.85;7.95;;;11.70;74.20;;;;;;5075928;28;20430;-69
2021/10/10 03:14:37;;;;;;;13.30;7.40;;;11.70;74.20;;;;;;5075957;28;20020;-68
2021/10/10 03:17:03;;;;;;;17.98;8.40;;;11.70;74.20;;;;;;5074160;28;20029;-69
2021/10/10 03:19:28;;;;;;;15.05;8.27;;;11.70;74.20;;;;;;5086817;28;20024;-68
2021/10/10 03:21:54;;;;;;;14.57;7.75;;;11.60;74.30;;;;;;5075982;28;20025;-68
2021/10/10 03:24:20;;;;;;;14.98;8.00;;;11.60;74.40;;;;;;5074892;28;20430;-68
2021/10/10 03:26:45;;;;;;;16.50;7.90;;;11.60;74.50;;;;;;5092753;28;20024;-69
2021/10/10 03:29:11;;;;;;;15.00;8.40;;;11.60;74.40;;;;;;5093325;28;20378;-68
2021/10/10 03:31:36;;;;;;;14.63;7.25;;;11.60;74.30;;;;;;5079403;28;20025;-68
2021/10/10 03:34:02;;;;;;;14.68;8.68;;;11.60;74.20;;;;;;5083935;28;20471;-68
2021/10/10 03:36:28;;;;;;;15.13;7.43;;;11.50;74.20;;;;;;5078850;28;20065;-68
2021/10/10 03:38:53;;;;;;;14.00;7.90;;;11.50;74.20;;;;;;5074923;28;20051;-68
2021/10/10 03:41:19;;;;;;;17.15;8.32;;;11.50;74.30;;;;;;5087940;28;20521;-68
2021/10/10 03:43:44;;;;;;;16.05;8.85;;;11.50;74.50;;;;;;5087086;28;20047;-68
2021/10/10 03:46:11;;;;;;;16.83;7.78;;;11.50;74.60;;;;;;5074617;28;20047;-68
2021/10/10 03:48:37;;;;;;;15.85;8.05;;;11.40;74.80;;;;;;5087654;28;20127;-68
2021/10/10 03:51:03;;;;;;;14.57;8.18;;;11.40;74.90;;;;;;5075218;28;20020;-68
2021/10/10 03:53:38;;;;;;;15.35;8.45;;;11.40;75.00;;;;;;5086191;28;20083;-68
2021/10/10 03:56:04;;;;;;;13.77;8.00;;;11.40;75.10;;;;;;5087694;28;20036;-69
2021/10/10 03:58:31;;;;;;;18.95;8.65;;;11.30;75.00;;;;;;5085489;28;20032;-68
2021/10/10 04:00:56;;;;;;;14.77;7.70;;;11.40;75.00;;;;;;5090942;28;20074;-68
2021/10/10 04:03:22;;;;;;;12.18;7.80;;;11.30;74.90;;;;;;5084417;28;20480;-68
2021/10/10 04:05:48;;;;;;;25.88;8.57;;;11.30;74.80;;;;;;5089469;28;20036;-68
2021/10/10 04:08:14;;;;;;;14.07;8.45;;;11.30;74.90;;;;;;5081781;28;20041;-68
2021/10/10 04:10:40;;;;;;;15.10;8.15;;;11.30;75.00;;;;;;5079173;28;20478;-68
2021/10/10 04:13:07;;;;;;;18.75;8.52;;;11.30;75.20;;;;;;5087599;28;20474;-68
2021/10/10 04:15:34;;;;;;;15.90;8.55;;;11.20;75.80;;;;;;5087128;28;20063;-68
2021/10/10 04:18:00;;;;;;;20.50;9.05;;;11.20;75.40;;;;;;5082867;28;20028;-68
2021/10/10 04:20:26;;;;;;;20.08;8.88;;;11.20;75.50;;;;;;5088195;28;20360;-68
2021/10/10 04:22:51;;;;;;;17.10;9.18;;;11.20;75.70;;;;;;5078370;28;20036;-68
2021/10/10 04:25:17;;;;;;;13.15;8.20;;;11.20;75.80;;;;;;5081967;28;20119;-68
2021/10/10 04:27:43;;;;;;;19.48;8.40;;;11.20;75.90;;;;;;5078195;28;20045;-68
2021/10/10 04:30:12;;;;;;;14.70;8.82;;;11.10;75.90;;;;;;5080268;28;20176;-68
2021/10/10 04:32:39;;;;;;;14.32;8.00;;;11.10;75.90;;;;;;5077803;28;20063;-68
2021/10/10 04:35:05;;;;;;;18.50;8.05;;;11.10;75.80;;;;;;5089869;28;20099;-68
2021/10/10 04:37:31;;;;;;;19.60;7.75;;;11.10;75.80;;;;;;5083106;28;20182;-68
2021/10/10 04:39:56;;;;;;;17.38;8.35;;;11.10;75.80;;;;;;5087296;28;20036;-69
2021/10/10 04:42:22;;;;;;;15.23;7.95;;;11.10;75.80;;;;;;5078056;28;20016;-68
2021/10/10 04:44:47;;;;;;;15.57;8.65;;;11.10;75.80;;;;;;5091168;28;20042;-68
2021/10/10 04:47:13;;;;;;;14.07;7.80;;;11.10;75.80;;;;;;5081955;28;20029;-69
2021/10/10 04:49:38;;;;;;;13.75;7.88;;;11.10;75.70;;;;;;5082173;28;20031;-67
2021/10/10 04:52:05;;;;;;;16.10;7.57;;;11.00;75.70;;;;;;5089357;28;20090;-68
2021/10/10 04:54:33;;;;;;;18.35;7.85;;;11.00;75.70;;;;;;5079584;28;20115;-68
2021/10/10 04:56:58;;;;;;;15.13;8.43;;;11.00;75.80;;;;;;5075071;28;20040;-68
2021/10/10 04:59:24;;;;;;;17.40;8.43;;;11.00;75.80;;;;;;5076864;28;20074;-68
2021/10/10 05:01:49;;;;;;;17.88;8.50;;;10.90;75.90;;;;;;5075195;28;20036;-68
2021/10/10 05:04:15;;;;;;;16.42;8.70;;;10.90;75.90;;;;;;5074530;28;20052;-68
2021/10/10 05:06:41;;;;;;;16.17;8.80;;;10.90;75.90;;;;;;5076622;28;20063;-68
2021/10/10 05:09:06;;;;;;;17.48;8.05;;;10.90;76.00;;;;;;5075988;28;20060;-68
2021/10/10 05:11:32;;;;;;;19.23;8.60;;;10.90;76.00;;;;;;5075192;28;20025;-68
2021/10/10 05:13:58;;;;;;;18.50;8.25;;;10.90;76.10;;;;;;5082940;28;20109;-69
2021/10/10 05:16:23;;;;;;;18.13;8.85;;;10.80;76.10;;;;;;5077463;28;20067;-68
2021/10/10 05:18:49;;;;;;;24.27;8.95;;;10.80;76.20;;;;;;5076041;28;20028;-68
2021/10/10 05:21:15;;;;;;;18.98;7.88;;;10.90;76.30;;;;;;5074744;28;20468;-68
2021/10/10 05:23:40;;;;;;;15.90;8.50;;;10.80;76.30;;;;;;5071825;28;20461;-68
2021/10/10 05:26:07;;;;;;;14.13;8.00;;;10.80;76.20;;;;;;5075716;28;20020;-68
2021/10/10 05:28:33;;;;;;;11.15;5.70;;;10.80;76.10;;;;;;5073503;28;20040;-68
2021/10/10 05:30:58;;;;;;;19.42;7.65;;;10.80;75.70;;;;;;5073998;28;20432;-68
2021/10/10 05:33:24;;;;;;;12.30;6.80;;;10.80;75.50;;;;;;5080082;28;20029;-68
2021/10/10 05:35:50;;;;;;;11.95;6.18;;;10.80;75.40;;;;;;5089274;28;20489;-68
2021/10/10 05:38:16;;;;;;;16.13;7.93;;;10.70;75.20;;;;;;5086698;28;20028;-68
2021/10/10 05:40:41;;;;;;;12.23;6.68;;;10.70;75.10;;;;;;5083983;28;20491;-68
2021/10/10 05:43:07;;;;;;;12.40;5.95;;;10.70;75.10;;;;;;5087241;28;20117;-68
2021/10/10 05:45:33;;;;;;;11.43;6.05;;;10.70;75.00;;;;;;5085460;28;20024;-68
2021/10/10 05:48:02;;;;;;;11.25;6.35;;;10.70;74.90;;;;;;5085203;28;20492;-68
2021/10/10 05:50:27;;;;;;;12.18;6.13;;;10.70;74.80;;;;;;5078024;28;20033;-68
2021/10/10 05:52:53;;;;;;;11.40;6.93;;;10.60;74.70;;;;;;5080778;28;20028;-68
2021/10/10 05:55:22;;;;;;;12.38;7.15;;;10.60;74.70;;;;;;5087415;28;20024;-68
2021/10/10 05:57:50;;;;;;;11.98;6.20;;;10.60;74.80;;;;;;5080360;28;20075;-68
2021/10/10 06:00:18;;;;;;;13.80;7.07;;;10.50;74.90;;;;;;5079956;28;20042;-68
2021/10/10 06:02:48;;;;;;;13.25;7.03;;;10.50;75.10;;;;;;5081317;28;20031;-69
2021/10/10 06:05:15;;;;;;;12.48;7.40;;;10.50;75.30;;;;;;5087821;28;20027;-68
2021/10/10 06:07:41;;;;;;;14.32;8.20;;;10.50;75.50;;;;;;5088719;28;20040;-68
2021/10/10 06:10:07;;;;;;;17.73;8.48;;;10.50;75.70;;;;;;5087440;28;20853;-68
2021/10/10 06:12:36;;;;;;;20.67;8.02;;;10.40;75.90;;;;;;5081955;28;20040;-68
2021/10/10 06:15:04;;;;;;;20.67;8.18;;;10.50;76.10;;;;;;5093527;28;20444;-68
2021/10/10 06:17:31;;;;;;;15.48;7.85;;;10.40;76.20;;;;;;5093383;28;20058;-68
2021/10/10 06:19:58;;;;;;;19.40;8.93;;;10.50;76.40;;;;;;5076055;28;20098;-68
2021/10/10 06:22:23;;;;;;;15.77;8.00;;;10.50;76.70;;;;;;5087417;28;20070;-68
2021/10/10 06:24:49;;;;;;;18.35;8.63;;;10.40;76.90;;;;;;5077824;28;20049;-68
2021/10/10 06:27:17;;;;;;;16.88;9.63;;;10.40;77.20;;;;;;5083844;28;20039;-68
2021/10/10 06:29:44;;;;;;;16.70;9.90;;;10.40;77.60;;;;;;5082063;28;20082;-69
2021/10/10 06:32:10;;;;;;;18.58;9.50;;;10.40;78.00;;;;;;5077021;28;20047;-68
2021/10/10 06:34:35;;;;;;;24.08;9.30;;;10.40;78.40;;;;;;5075544;28;20028;-68
2021/10/10 06:37:01;;;;;;;20.50;8.73;;;10.40;78.80;;;;;;5075670;28;20028;-67
2021/10/10 06:39:27;;;;;;;20.27;9.27;;;10.40;78.90;;;;;;5093461;28;20028;-68
2021/10/10 06:41:52;;;;;;;15.10;8.63;;;10.40;79.10;;;;;;5085585;28;20055;-68
2021/10/10 06:44:20;;;;;;;17.48;9.18;;;10.40;79.40;;;;;;5084699;28;20054;-68
2021/10/10 06:46:45;;;;;;;25.35;10.25;;;10.40;79.70;;;;;;5087625;28;20035;-68
2021/10/10 06:49:14;;;;;;;17.30;8.73;;;10.40;79.90;;;;;;5086607;28;20043;-70
2021/10/10 06:51:40;;;;;;;22.08;8.88;;;10.30;79.90;;;;;;5084244;28;20042;-69
2021/10/10 06:54:05;;;;;;;15.07;8.32;;;10.30;80.20;;;;;;5080263;28;20087;-68
2021/10/10 06:56:31;;;;;;;23.38;8.73;;;10.40;80.50;;;;;;5090021;28;20029;-69
2021/10/10 06:58:57;;;;;;;17.98;9.18;;;10.40;80.70;;;;;;5084841;28;20081;-71
2021/10/10 07:01:23;;;;;;;18.02;9.43;;;10.40;80.70;;;;;;5092015;28;20028;-71
2021/10/10 07:03:49;;;;;;;18.70;8.85;;;10.50;80.70;;;;;;5082016;28;20032;-70
2021/10/10 07:06:15;;;;;;;13.52;8.35;;;10.50;80.70;;;;;;5082568;28;20071;-70
2021/10/10 07:08:41;;;;;;;22.80;8.70;;;10.50;80.50;;;;;;5091414;28;20063;-70
2021/10/10 07:11:06;;;;;;;17.15;8.80;;;10.60;80.40;;;;;;5093025;28;20032;-70
2021/10/10 07:13:32;;;;;;;20.90;8.57;;;10.60;80.40;;;;;;5092710;28;20036;-70
2021/10/10 07:15:58;;;;;;;16.05;8.23;;;10.70;80.40;;;;;;5079530;28;20082;-70
2021/10/10 07:18:31;;;;;;;17.80;9.43;;;10.70;80.30;;;;;;5087074;28;20029;-70
2021/10/10 07:23:55;;;;;;;18.20;7.18;;;10.70;80.30;;;;;;5084599;28;20036;-70
2021/10/10 07:26:16;;;;;;;14.73;8.85;;;10.70;80.30;;;;;;5092369;28;20356;-70
2021/10/10 07:28:42;;;;;;;16.05;8.55;;;10.70;80.30;;;;;;5090657;28;20043;-70
2021/10/10 07:31:08;;;;;;;16.38;8.15;;;10.70;80.40;;;;;;5078460;28;20029;-70
2021/10/10 07:33:36;;;;;;;23.45;8.32;;;10.70;80.40;;;;;;5076105;28;20032;-70
2021/10/10 07:36:02;;;;;;;16.60;7.85;;;10.70;80.50;;;;;;5077233;28;20024;-71
2021/10/10 07:38:28;;;;;;;19.83;8.60;;;10.70;80.60;;;;;;5077065;28;20425;-70
2021/10/10 07:40:54;;;;;;;24.85;8.48;;;10.70;80.60;;;;;;5079434;28;20759;-71
2021/10/10 07:43:23;;;;;;;22.70;9.25;;;10.80;80.60;;;;;;5078511;28;20033;-71
2021/10/10 07:45:52;;;;;;;14.57;7.53;;;10.80;80.70;;;;;;5079461;28;20032;-71
2021/10/10 07:48:18;;;;;;;16.13;8.55;;;10.90;80.70;;;;;;5085537;28;20115;-71
2021/10/10 07:50:45;;;;;;;18.38;8.85;;;10.80;80.70;;;;;;5084036;28;20156;-71
2021/10/10 07:53:14;;;;;;;20.02;8.23;;;10.80;80.80;;;;;;5087992;28;20118;-71
2021/10/10 07:55:40;;;;;;;21.02;9.93;;;10.90;81.00;;;;;;5083953;28;20031;-71
2021/10/10 07:58:05;;;;;;;19.80;11.25;;;10.90;81.20;;;;;;5080917;28;20033;-71
2021/10/10 08:00:31;;;;;;;19.45;10.00;;;10.90;81.50;;;;;;5082109;28;20028;-71
2021/10/10 08:02:59;;;;;;;19.20;8.90;;;11.00;81.60;;;;;;5088054;28;20024;-71
2021/10/10 08:05:26;;;;;;;18.50;8.77;;;10.90;81.50;;;;;;5086007;28;20485;-71
2021/10/10 08:07:53;;;;;;;21.10;9.55;;;11.00;81.50;;;;;;5078030;28;20032;-71
2021/10/10 08:10:20;;;;;;;19.60;9.75;;;11.00;81.60;;;;;;5077254;28;20392;-71
2021/10/10 08:12:46;;;;;;;17.48;9.40;;;11.00;81.70;;;;;;5083246;28;20107;-71
2021/10/10 08:15:12;;;;;;;20.73;9.68;;;11.10;81.80;;;;;;5085743;28;20099;-71
2021/10/10 08:17:38;;;;;;;18.13;10.20;;;11.10;81.90;;;;;;5089701;28;20043;-71
2021/10/10 08:20:06;;;;;;;24.42;11.38;;;11.20;82.10;;;;;;5085946;28;20020;-71
2021/10/10 08:22:38;;;;;;;24.60;9.70;;;11.20;82.40;;;;;;5080787;28;20059;-71
2021/10/10 08:25:11;;;;;;;20.20;8.93;;;11.20;82.30;;;;;;5083867;28;20024;-71
2021/10/10 08:27:38;;;;;;;21.08;10.10;;;11.20;82.20;;;;;;5074278;28;20135;-70
2021/10/10 08:30:06;;;;;;;13.13;7.53;;;11.20;82.20;;;;;;5076812;28;20210;-71
2021/10/10 08:32:32;;;;;;;23.15;10.68;;;11.30;82.40;;;;;;5073175;28;20036;-72
2021/10/10 08:34:57;;;;;;;23.80;11.30;;;11.30;82.40;;;;;;5074664;28;20379;-72
2021/10/10 08:37:23;;;;;;;21.75;10.80;;;11.30;82.80;;;;;;5076357;28;20025;-71
2021/10/10 08:39:49;;;;;;;20.85;11.82;;;11.30;83.80;;;;;;5075875;28;20055;-72
2021/10/10 08:42:18;;;;;;;20.58;10.93;;;11.40;83.30;;;;;;5075354;28;20467;-72
2021/10/10 08:44:47;;;;;;;24.20;9.35;;;11.40;83.40;;;;;;5075625;28;20119;-69
2021/10/10 08:47:15;;;;;;;21.17;10.52;;;11.50;83.00;;;;;;5072749;28;20119;-69
2021/10/10 08:49:41;;;;;;;21.38;10.55;;;11.50;83.00;;;;;;5071296;28;20138;-69
2021/10/10 08:52:09;;;;;;;24.15;10.70;;;11.50;83.20;;;;;;5075460;28;20028;-69
2021/10/10 08:54:35;;;;;;;23.70;11.13;;;11.50;83.40;;;;;;5075463;28;20419;-69
2021/10/10 08:57:02;;;;;;;18.83;10.40;;;11.60;83.50;;;;;;5073222;28;20059;-69
2021/10/10 08:59:30;;;;;;;22.42;11.07;;;11.70;83.60;;;;;;5073701;28;20086;-69
2021/10/10 09:01:57;;;;;;;21.58;9.07;;;11.70;83.70;;;;;;5074695;28;20043;-70
2021/10/10 09:04:23;;;;;;;21.42;10.90;;;11.70;83.30;;;;;;5075445;28;20489;-69
2021/10/10 09:06:50;;;;;;;20.63;10.65;;;11.70;83.30;;;;;;5071168;28;20029;-69
2021/10/10 09:09:37;;;;;;;23.17;9.57;;;11.70;83.10;;;;;;5082677;28;20044;-69
2021/10/10 09:12:07;;;;;;;27.30;11.48;;;11.70;83.10;;;;;;5081347;28;20467;-70
2021/10/10 09:14:51;;;;;;;20.55;10.40;;;11.70;83.20;;;;;;5088263;28;20035;-69
2021/10/10 09:17:23;;;;;;;21.25;10.63;;;11.70;83.30;;;;;;5082393;28;20111;-70
2021/10/10 09:19:58;;;;;;;19.05;10.20;;;11.70;83.50;;;;;;5085098;28;20125;-71
2021/10/10 09:22:25;;;;;;;18.55;9.80;;;11.70;83.40;;;;;;5081585;28;20028;-72
2021/10/10 09:24:53;;;;;;;22.20;11.82;;;11.70;83.50;;;;;;5078952;28;20051;-72
2021/10/10 09:27:22;;;;;;;21.52;10.20;;;11.80;83.90;;;;;;5083497;28;20448;-72
2021/10/10 09:29:51;;;;;;;21.02;11.68;;;11.80;83.80;;;;;;5086772;28;20024;-71
2021/10/10 09:32:24;;;;;;;21.77;10.85;;;11.80;83.70;;;;;;5073257;28;20044;-71
2021/10/10 09:34:50;;;;;;;19.70;8.87;;;11.80;83.50;;;;;;5086314;28;20032;-72
2021/10/10 09:37:23;;;;;;;20.40;9.13;;;11.80;83.30;;;;;;5075263;28;20047;-71
2021/10/10 09:39:57;;;;;;;21.58;9.65;;;11.80;83.40;;;;;;5086259;28;20032;-70
2021/10/10 09:42:39;;;;;;;22.73;11.13;;;11.80;83.60;;;;;;5080284;28;20127;-71
2021/10/10 09:45:23;;;;;;;23.85;11.70;;;11.80;83.90;;;;;;5087425;28;20036;-68
2021/10/10 09:47:54;;;;;;;16.40;9.43;;;11.80;84.20;;;;;;5086761;28;20079;-70
2021/10/10 09:50:21;;;;;;;27.40;10.07;;;11.70;84.00;;;;;;5074464;28;20029;-72
2021/10/10 09:53:10;;;;;;;13.13;5.15;;;11.80;84.30;;;;;;5075331;28;20107;-71
2021/10/10 09:55:59;;;;;;;25.50;10.95;;;11.70;84.30;;;;;;5086483;28;20055;-71
2021/10/10 09:58:39;;;;;;;24.25;10.30;;;11.70;84.80;;;;;;5086154;28;20103;-72
2021/10/10 10:01:15;;;;;;;24.83;13.10;;;11.70;84.90;;;;;;5079820;28;20475;-71
2021/10/10 10:04:11;;;;;;;22.40;11.85;;;11.70;85.40;;;;;;5076007;28;20028;-71
2021/10/10 10:06:39;;;;;;;23.92;10.82;;;11.80;85.50;;;;;;5079118;28;20032;-71
2021/10/10 10:09:11;;;;;;;28.05;10.98;;;11.70;85.30;;;;;;5088333;28;20123;-73
2021/10/10 10:11:38;;;;;;;26.52;13.80;;;11.80;85.60;;;;;;5076277;28;20029;-71
2021/10/10 10:14:09;;;;;;;12.73;6.97;;;11.80;86.00;;;;;;5077860;28;20116;-71
2021/10/10 10:16:49;;;;;;;22.02;11.57;;;11.80;85.70;;;;;;5070902;28;20029;-71
2021/10/10 10:19:16;;;;;;;31.10;13.88;;;11.90;86.00;;;;;;5071531;28;20040;-70
2021/10/10 10:21:47;;;;;;;20.13;9.27;;;11.90;86.10;;;;;;5074170;28;20033;-72
2021/10/10 10:24:14;;;;;;;22.27;11.98;;;11.90;86.10;;;;;;5085549;28;20033;-73
2021/10/10 10:26:41;;;;;;;27.50;12.55;;;12.00;86.30;;;;;;5074922;28;20025;-72
2021/10/10 10:29:15;;;;;;;27.95;13.05;;;12.00;86.50;;;;;;5073280;28;20036;-72
2021/10/10 10:31:45;;;;;;;26.92;13.30;;;12.00;86.70;;;;;;5083929;28;20021;-72
2021/10/10 10:34:25;;;;;;;31.48;13.50;;;12.10;86.60;;;;;;5079078;28;20037;-71
2021/10/10 10:36:52;;;;;;;27.38;14.25;;;12.20;86.70;;;;;;5076810;28;20036;-72
2021/10/10 10:39:43;;;;;;;30.77;15.30;;;12.30;86.50;;;;;;5074938;28;20043;-72
2021/10/10 10:42:13;;;;;;;29.75;12.88;;;12.30;86.90;;;;;;5087300;28;20076;-70
2021/10/10 10:44:45;;;;;;;26.55;12.82;;;12.30;86.60;;;;;;5088360;28;20032;-72
2021/10/10 10:47:17;;;;;;;30.60;16.05;;;12.40;86.60;;;;;;5074943;28;21311;-73
2021/10/10 10:49:55;;;;;;;33.60;14.95;;;12.50;87.40;;;;;;5088170;28;20064;-73
2021/10/10 10:52:26;;;;;;;20.77;9.75;;;12.50;87.60;;;;;;5084110;28;20467;-78
2021/10/10 10:54:56;;;;;;;29.70;14.20;;;12.60;87.00;;;;;;5082480;28;20032;-76
2021/10/10 10:57:38;;;;;;;26.08;11.98;;;12.60;87.00;;;;;;5089018;28;20063;-76
2021/10/10 11:00:09;;;;;;;38.08;17.38;;;12.70;87.10;;;;;;5074281;28;20024;-75
2021/10/10 11:02:48;;;;;;;36.20;16.58;;;12.70;88.30;;;;;;5080456;28;20028;-71
2021/10/10 11:05:31;;;;;;;35.72;20.13;;;12.80;88.30;;;;;;5076800;28;20050;-71
2021/10/10 11:08:01;;;;;;;29.98;16.27;;;12.90;88.30;;;;;;5077824;28;20044;-72
2021/10/10 11:10:28;;;;;;;31.45;14.75;;;13.00;88.30;;;;;;5073971;28;20028;-71
2021/10/10 11:13:06;;;;;;;25.77;11.48;;;13.10;88.50;;;;;;5078346;28;20517;-70
2021/10/10 11:15:57;;;;;;;36.83;18.05;;;13.20;87.80;;;;;;5078219;28;20024;-70
2021/10/10 11:18:26;;;;;;;38.15;19.13;;;13.30;87.50;;;;;;5077272;28;20161;-70
2021/10/10 11:20:55;;;;;;;14.63;7.47;;;13.30;87.90;;;;;;5076654;28;20035;-71
2021/10/10 11:23:25;;;;;;;33.15;17.90;;;13.40;87.30;;;;;;5073456;28;20111;-70
2021/10/10 11:25:52;;;;;;;32.35;16.80;;;13.40;87.70;;;;;;5073769;28;20438;-69
2021/10/10 11:28:45;;;;;;;22.45;9.93;;;13.50;88.00;;;;;;5079382;28;20044;-70
2021/10/10 11:31:15;;;;;;;36.10;14.20;;;13.60;87.60;;;;;;5071811;28;20020;-71
2021/10/10 11:33:58;;;;;;;29.15;13.13;;;13.60;87.40;;;;;;5073640;28;20040;-71
2021/10/10 11:36:40;;;;;;;37.38;19.20;;;13.70;87.50;;;;;;5071611;28;20772;-72
2021/10/10 11:39:10;;;;;;;26.65;12.85;;;13.70;88.10;;;;;;5071876;28;20029;-72
2021/10/10 11:41:41;;;;;;;30.63;16.95;;;13.80;88.20;;;;;;5070619;28;20131;-72
2021/10/10 11:44:09;;;;;;;39.70;17.08;;;13.90;88.30;;;;;;5074431;28;20035;-72
2021/10/10 11:46:50;;;;;;;31.13;13.98;;;14.00;88.00;;;;;;5071847;28;20415;-72
2021/10/10 11:50:15;;;;;;;34.83;15.63;;;14.10;87.90;;;;;;5074513;28;20071;-71
2021/10/10 11:54:57;;;;;;;31.52;14.98;;;14.10;87.90;;;;;;5072724;28;20031;-72
2021/10/10 11:57:25;;;;;;;38.20;18.70;;;14.20;88.00;;;;;;5078794;28;20029;-72
2021/10/10 11:59:55;;;;;;;23.42;11.70;;;14.30;88.30;;;;;;5071798;28;20102;-73
2021/10/10 12:02:33;;;;;;;45.72;21.52;;;14.30;88.20;;;;;;5072642;28;20362;-75
2021/10/10 12:05:22;;;;;;;29.13;14.13;;;14.40;88.30;;;;;;5072827;28;20020;-72
2021/10/10 12:07:53;;;;;;;39.53;19.98;;;14.40;88.60;;;;;;5078932;28;20036;-74
2021/10/10 12:10:21;;;;;;;43.03;18.70;;;14.50;89.20;;;;;;5085497;28;20111;-74
2021/10/10 12:12:53;;;;;;;41.58;20.80;;;14.50;89.30;;;;;;5077074;28;20031;-74
2021/10/10 12:15:22;;;;;;;39.53;16.55;;;14.50;89.50;;;;;;5072888;28;20063;-73
2021/10/10 12:17:57;;;;;;;38.83;21.80;;;14.60;89.40;;;;;;5077061;28;20036;-73
2021/10/10 12:20:26;;;;;;;47.40;22.52;;;14.70;89.60;;;;;;5078255;28;20032;-73
2021/10/10 12:22:57;;;;;;;38.30;17.70;;;14.90;89.30;;;;;;5073051;28;20422;-73
2021/10/10 12:25:44;;;;;;;41.58;22.27;;;15.00;89.20;;;;;;5075269;28;20035;-73
2021/10/10 12:28:13;;;;;;;46.13;24.00;;;15.10;89.20;;;;;;5078251;28;20607;-73
2021/10/10 12:30:57;;;;;;;47.70;24.45;;;15.20;89.30;;;;;;5080436;28;20030;-73
2021/10/10 12:33:31;;;;;;;48.80;23.15;;;15.30;89.30;;;;;;5082014;28;20375;-73
2021/10/10 12:36:01;;;;;;;47.10;23.40;;;15.30;89.10;;;;;;5074181;28;20060;-73
2021/10/10 12:38:31;;;;;;;42.28;23.85;;;15.50;89.00;;;;;;5077429;28;20023;-73
2021/10/10 12:40:57;;;;;;;46.97;23.45;;;15.60;88.90;;;;;;5090823;28;20579;-73
2021/10/10 12:43:38;;;;;;;51.63;23.55;;;15.60;88.70;;;;;;5088802;28;20034;-73
2021/10/10 12:46:04;;;;;;;50.15;22.42;;;15.70;88.70;;;;;;5074024;28;20475;-73